Scroll down
FLIGHT INFORMATION
American Airlines

AAL759

At Arrival Gate

KMIA
 KORD
DATE: 2020-10-10
GATE: C9
GATE DEPARTURE: 17:41
TAKEOFF: 17:52
DATE: 2020-10-10
GATE: B10
LANDING: 20:37
GATE ARRIVAL: 20:46
FLIGHT DATA
Crew: 
Speed: 
478 kts
Altitude: 
34,031 ft
Stage Length: 
1,042.2 nm
Block Time: 
3.1 hrs
Flight Time: 
2.8 hrs
Fuel Used: 
18,303 lb
Cleared Route: KMIA SENOY CIMBA FORKK VVMAX HEDLY STYMY WAKKO MJAMS ETORE SHRKS YANTI ATL KAILL GLAZR JEDER HELUB VOSTK ROYYZ HEVAN MZZ NYLEN VEECK BOONE HANNI CLUSO KAYTO PINKK MONKZ JORJO POSSM RRUDA RW10C
TRACK DATA
50,000 ft 1,000 kts
AIRCRAFT INFO AND CUMULATIVE STATS
Aircraft Type: 
B738BW
Registration: 
SELCAL: 
AGDE
MSN/LN: 
31157 / 4247
Operator: 
Total Flights: 
4
Total Block Time: 
7.5 hrs
Total Flight Time: 
6.4 hrs
Total Fuel Time: 
42,819 lb
DATALINK LOG | Newest first | Current as of: 2020-12-01 20:21:06
LABEL SEQUENCE CONTENT Dn/Up
QD495220:46 10▼ Dn
QC404420:37▼ Dn
UM2120419KORD ATIS - ORD ATIS INFO N 1951Z. 05012KT 10SM BKN036 BKN250 20/10 A2992 (TWO NINER NINER TWO) RMK AO2 SLP129. ARR EXP VECTORS ILS RWY 10C APCH. READBACK ALL RWY HOLD SHORT INSTRUCTIONS. DEPS EXP RWYS 9R, 10L FROM DD. 10,093 FT AVBL. SIMULTANEOUS PARALLEL DEPARTURES IN USE. NOTAMS... RWY 4L, 22R CLSD. TWY K CLSD BTN TWY T AND TWY DD . RWY 28RLOC OTS. WIND SHEAR ADZYS ARE IN EFCT. USE CAUTION FOR MEN AND EQUIP AT NUMEROUS SITES ON THE FIELD. AUTHORIZED DRONE ACTIVITY, BETWEEN RUNWAYS 9L AND 9R , 400 FEET. WHEN READY TO TAXI CONTACT GND METERING ON FREQ 121.67. ...ADVS YOU HAVE INFO N.▲ Up
DM790409 ATIS KORD A▼ Dn
5Z505710 OCT 20 19:48:04z / FLT DECK GOOD / ACF POS GOOD / GRND SERVICES GOOD / MAINT GOOD▼ Dn
GA4966GATE B10▲ Up
GR4956KORD 20:28 MAAS 00 YP/UM 01/02 WCHR/S/C 03/04/05 HI-VAL NO DIPL/VIP NO▼ Dn
UM2124865KORD ATIS - ORD ATIS INFO M 1851Z. 04013KT 10SM BKN032 OVC250 20/11 A2992 (TWO NINER NINER TWO). ARR EXP VECTORS ILS RWY 10C APCH. READBACK ALL RWY HOLD SHORT INSTRUCTIONS. DEPS EXP RWYS 9R, 10L FROM DD. 10,093 FT AVBL. SIMULTANEOUS PARALLEL DEPARTURES IN USE. NOTAMS... RWY 4L, 22R CLSD. TWY K CLSD BTN TWY T AND TWY DD . RWY 28RLOC OTS. WIND SHEAR ADZYS ARE IN EFCT. USE CAUTION FOR MEN AND EQUIP AT NUMEROUS SITES ON THE FIELD. AUTHORIZED DRONE ACTIVITY, BETWEEN RUNWAYS 9L AND 9R , 400 FEET. WHEN READY TO TAXI CONTACT GND METERING ON FREQ 121.67. ...ADVS YOU HAVE INFO M.▲ Up
DM794855 ATIS KORD A▼ Dn
QB550717:52▼ Dn
QA435717:41 28.4▼ Dn
5U2842KORD 102128Z 03015G20KT 10SM SCT025 BKN035 24/17 A2989▲ Up
5S3045KORD▼ Dn
A32852CLEARED TO KORD VIA HEDLY2 HEDLY STYMY Q77 SHRKS Q89 YANTI Q89 ATL Q118 MZZ VEECK4 . SQUAWK 2717.▲ Up
5U2627KMIA 102128Z 14015KT 10SM VCTS SCT025CB BKN035 31/24 A2999▲ Up
2U2622KMIA 101653Z 14010G19KT 10SM SCT020 BKN034 BKN250 31/24 A2999 RMK AO2 SLP155 T03060244 $▲ Up
5S2850KMIA▼ Dn
2S2850KMIA▼ Dn
Q02743[LINK ACK]▲ Up
Q02743[LINK TEST]▼ Dn


AIRCRAFT HISTORY
FLIGHT DATE FLIGHT NO. ORIGIN DESTINATION CLEARED ROUTE BLOCK TIME FLIGHT TIME FUEL USED PILOT
2020-11-24AAL519KBDL KPHL KBDL HFD THUMB YODER CCC MANTA DRIFT BRIGS IROKT JIIMS BEELZ WOJIK PSOUT MRTIN RW27R1 hrs0.8 hrs5,985 lbSteven Perry
2020-10-11AAL3284KORD KBDL KORD DUFEE ELX HAAKK DOXXY SOSIC JHW WAYLA VIEEW TYROD MEMMS WILET RKA SWEDE CANAN SHIGY STELA MOLDS TOMES JANID RW061.9 hrs1.6 hrs10,265 lbGeorge M
2020-10-10AAL759KMIA KORD KMIA SENOY CIMBA FORKK VVMAX HEDLY STYMY WAKKO MJAMS ETORE SHRKS YANTI ATL KAILL GLAZR JEDER HELUB VOSTK ROYYZ HEVAN MZZ NYLEN VEECK BOONE HANNI CLUSO KAYTO PINKK MONKZ JORJO POSSM RRUDA RW10C3.1 hrs2.8 hrs18,303 lbGeorge M
2020-09-13AAL1285MMUN KMIA MMUN FRANT MAXIM EADEN STRAP TIGAR CARNU DVALL CURSO MNNDY JODPO BEETR COPRA RW08R1.6 hrs1.2 hrs8,266 lbMichael Collier